Time;durP1;ratioP1;P1;durP2;ratioP2;P2;SDS_P1;SDS_P2;PMS_P1;PMS_P2;Temp;Humidity;BMP_temperature;BMP_pressure;BME280_temperature;BME280_humidity;BME280_pressure;Samples;Min_cycle;Max_cycle;Signal;HPM_P1;HPM_P2
2021/09/25 00:01:48;;;;;;;1.17;0.20;;;;;;;18.99;100.00;99664.44;5054295;28;20051;-51
2021/09/25 00:04:52;;;;;;;1.17;0.45;;;;;;;18.98;100.00;99663.66;5054674;28;20047;-51
2021/09/25 00:07:55;;;;;;;0.85;0.70;;;;;;;18.99;100.00;99665.19;5054799;28;20052;-51
2021/09/25 00:10:58;;;;;;;0.50;0.30;;;;;;;18.99;100.00;99661.63;5055148;28;20055;-51
2021/09/25 00:14:02;;;;;;;1.23;0.70;;;;;;;19.04;100.00;99667.16;5054666;28;20074;-51
2021/09/25 00:17:07;;;;;;;0.43;0.32;;;;;;;19.13;100.00;99669.56;5054683;28;20051;-50
2021/09/25 00:20:11;;;;;;;0.35;0.28;;;;;;;19.10;100.00;99656.53;5054770;28;20075;-50
2021/09/25 00:23:14;;;;;;;1.85;0.40;;;;;;;19.12;100.00;99656.00;5054435;28;20047;-51
2021/09/25 00:26:17;;;;;;;1.65;0.32;;;;;;;19.09;100.00;99660.66;5054527;28;20090;-51
2021/09/25 00:29:21;;;;;;;0.30;0.13;;;;;;;18.98;100.00;99663.66;5054524;28;20062;-51
2021/09/25 00:32:24;;;;;;;0.35;0.25;;;;;;;18.96;100.00;99671.91;5053996;28;20556;-51
2021/09/25 00:35:27;;;;;;;1.67;0.38;;;;;;;18.97;100.00;99667.81;5056967;28;20174;-50
2021/09/25 00:38:30;;;;;;;0.60;0.38;;;;;;;19.00;100.00;99682.88;5074305;28;20437;-51
2021/09/25 00:41:34;;;;;;;1.38;0.35;;;;;;;18.95;100.00;99684.50;5068405;28;20048;-51
2021/09/25 00:44:38;;;;;;;1.05;0.50;;;;;;;18.77;100.00;99685.31;5053668;28;20044;-51
2021/09/25 00:47:41;;;;;;;0.88;0.30;;;;;;;18.77;100.00;99683.25;5053598;28;20114;-50
2021/09/25 00:50:44;;;;;;;3.17;0.20;;;;;;;18.81;100.00;99677.28;5053887;28;20083;-51
2021/09/25 00:53:47;;;;;;;1.23;0.40;;;;;;;18.81;100.00;99677.28;5053670;28;20080;-51
2021/09/25 00:56:50;;;;;;;1.20;0.20;;;;;;;18.77;100.00;99679.66;5053570;28;20126;-51
2021/09/25 00:59:53;;;;;;;1.35;0.10;;;;;;;18.70;100.00;99677.44;5053715;28;20094;-51
2021/09/25 01:02:56;;;;;;;1.55;0.20;;;;;;;18.65;100.00;99681.09;5053417;28;20600;-51
2021/09/25 01:05:59;;;;;;;0.30;0.10;;;;;;;18.75;100.00;99683.00;5053570;28;20052;-51
2021/09/25 01:09:03;;;;;;;2.03;0.65;;;;;;;18.77;100.00;99690.94;5053894;28;20123;-51
2021/09/25 01:12:07;;;;;;;2.35;0.52;;;;;;;18.86;100.00;99679.28;5053611;28;20055;-51
2021/09/25 01:15:12;;;;;;;0.45;0.20;;;;;;;18.83;100.00;99685.97;5054013;28;20052;-51
2021/09/25 01:18:15;;;;;;;1.33;0.40;;;;;;;18.84;100.00;99681.88;5053526;28;20095;-51
2021/09/25 01:21:18;;;;;;;2.20;0.47;;;;;;;18.83;100.00;99677.50;5053394;28;20086;-48
2021/09/25 01:24:21;;;;;;;0.77;0.20;;;;;;;18.79;100.00;99677.84;5053052;28;20043;-47
2021/09/25 01:27:25;;;;;;;1.27;0.20;;;;;;;18.76;100.00;99680.94;5053291;28;20103;-47
2021/09/25 01:30:29;;;;;;;0.75;0.38;;;;;;;18.69;100.00;99682.31;5053182;28;20184;-48
2021/09/25 01:33:35;;;;;;;1.15;0.38;;;;;;;18.71;100.00;99684.63;5052702;28;20099;-47
2021/09/25 01:36:39;;;;;;;0.38;0.20;;;;;;;18.75;100.00;99677.34;5052916;28;20124;-48
2021/09/25 01:39:41;;;;;;;5.18;0.60;;;;;;;18.76;100.00;99680.94;5052840;28;20075;-48
2021/09/25 01:42:45;;;;;;;0.93;0.20;;;;;;;18.76;100.00;99672.47;5052665;28;20051;-51
2021/09/25 01:45:48;;;;;;;12.20;1.10;;;;;;;18.82;100.00;99668.28;5063970;28;20042;-51
2021/09/25 01:48:51;;;;;;;1.48;0.30;;;;;;;18.78;100.00;99672.72;5073234;28;20052;-51
2021/09/25 01:51:53;;;;;;;0.50;0.10;;;;;;;18.69;100.00;99673.88;5072225;28;20578;-52
2021/09/25 01:54:57;;;;;;;3.03;0.13;;;;;;;18.72;100.00;99674.84;5072574;28;20090;-52
2021/09/25 01:58:00;;;;;;;0.73;0.30;;;;;;;18.25;100.00;99665.25;5072820;28;20075;-51
2021/09/25 02:01:04;;;;;;;1.08;0.38;;;;;;;18.46;100.00;99674.72;5072834;28;20067;-51
2021/09/25 02:04:07;;;;;;;0.85;0.20;;;;;;;18.57;100.00;99663.28;5072669;28;20050;-52
2021/09/25 02:07:10;;;;;;;1.05;0.28;;;;;;;18.57;100.00;99669.69;5072874;28;20067;-51
2021/09/25 02:10:15;;;;;;;2.38;0.20;;;;;;;18.48;100.00;99672.13;5072815;28;20044;-50
2021/09/25 02:13:18;;;;;;;1.45;0.28;;;;;;;18.48;100.00;99658.81;5072531;28;20047;-50
2021/09/25 02:16:20;;;;;;;1.17;0.20;;;;;;;18.51;100.00;99659.78;5072619;28;20055;-51
2021/09/25 02:19:24;;;;;;;1.92;0.30;;;;;;;18.50;100.00;99652.63;5073049;28;20048;-51
2021/09/25 02:22:27;;;;;;;1.42;0.50;;;;;;;18.42;100.00;99663.75;5072117;28;20055;-51
2021/09/25 02:25:29;;;;;;;0.80;0.30;;;;;;;18.43;100.00;99665.25;5072756;28;20039;-52
2021/09/25 02:28:33;;;;;;;1.83;0.20;;;;;;;18.39;100.00;99670.44;5072319;28;20112;-50
2021/09/25 02:31:36;;;;;;;2.92;0.52;;;;;;;18.37;100.00;99660.97;5072541;28;20090;-50
2021/09/25 02:34:39;;;;;;;4.70;0.45;;;;;;;18.35;100.00;99663.56;5072323;28;20082;-51
2021/09/25 02:37:43;;;;;;;0.65;0.17;;;;;;;18.34;100.00;99654.38;5052550;28;20164;-51
2021/09/25 02:40:46;;;;;;;1.50;0.35;;;;;;;18.36;100.00;99665.09;5052398;28;20512;-51
2021/09/25 02:43:50;;;;;;;0.90;0.32;;;;;;;18.32;100.00;99670.28;5072334;28;20047;-50
2021/09/25 02:46:54;;;;;;;1.88;0.40;;;;;;;18.33;100.00;99666.94;5052349;28;20092;-51
2021/09/25 02:49:57;;;;;;;1.17;0.40;;;;;;;18.25;100.00;99670.91;5052767;28;20052;-52
2021/09/25 02:53:00;;;;;;;1.52;0.38;;;;;;;18.24;100.00;99658.09;5052151;28;20107;-51
2021/09/25 02:56:03;;;;;;;0.68;0.47;;;;;;;18.19;100.00;99666.09;5040666;28;20043;-51
2021/09/25 02:59:06;;;;;;;0.20;0.20;;;;;;;18.15;100.00;99662.03;5056043;28;20052;-50
2021/09/25 03:02:10;;;;;;;1.05;0.40;;;;;;;18.10;100.00;99655.19;5055804;28;20040;-51
2021/09/25 03:05:14;;;;;;;4.93;0.50;;;;;;;18.12;100.00;99660.31;5055912;28;20044;-51
2021/09/25 03:08:17;;;;;;;0.90;0.20;;;;;;;18.08;100.00;99657.78;5055745;28;20059;-51
2021/09/25 03:11:19;;;;;;;0.20;0.10;;;;;;;18.03;100.00;99664.25;5055818;28;20036;-51
2021/09/25 03:14:23;;;;;;;0.52;0.20;;;;;;;18.04;100.00;99668.59;5055930;28;20114;-51
2021/09/25 03:17:27;;;;;;;1.35;0.45;;;;;;;18.07;100.00;99666.78;5043688;28;20051;-52
2021/09/25 03:20:30;;;;;;;5.38;0.40;;;;;;;18.01;100.00;99674.53;5056203;28;20095;-51
2021/09/25 03:23:33;;;;;;;0.25;0.10;;;;;;;18.01;100.00;99663.28;5055658;28;20401;-51
2021/09/25 03:26:36;;;;;;;0.20;0.10;;;;;;;18.03;100.00;99666.31;5055285;28;20409;-51
2021/09/25 03:29:40;;;;;;;0.25;0.10;;;;;;;18.09;100.00;99664.94;5055319;28;20072;-51
2021/09/25 03:32:44;;;;;;;0.30;0.30;;;;;;;18.08;100.00;99669.06;5042702;28;20190;-51
2021/09/25 03:35:47;;;;;;;0.75;0.52;;;;;;;18.09;100.00;99670.59;5054319;28;20536;-51
2021/09/25 03:38:50;;;;;;;2.15;0.25;;;;;;;18.05;100.00;99667.31;5055187;28;20071;-51
2021/09/25 03:41:53;;;;;;;0.10;0.10;;;;;;;17.45;100.00;99674.38;5055222;28;20159;-51
2021/09/25 03:44:56;;;;;;;0.60;0.40;;;;;;;17.38;100.00;99674.94;5055225;28;20075;-51
2021/09/25 03:47:59;;;;;;;1.33;0.30;;;;;;;17.33;100.00;99679.34;5055098;28;20134;-50
2021/09/25 03:51:03;;;;;;;0.73;0.22;;;;;;;17.33;100.00;99672.94;5055081;28;20067;-51
2021/09/25 03:54:06;;;;;;;1.05;0.30;;;;;;;17.35;100.00;99676.00;5042616;28;20111;-50
2021/09/25 03:57:09;;;;;;;0.52;0.15;;;;;;;17.35;100.00;99670.38;5055177;28;20043;-51
2021/09/25 04:00:12;;;;;;;1.95;0.38;;;;;;;17.33;100.00;99672.94;5054548;28;20087;-50
2021/09/25 04:03:15;;;;;;;1.35;0.47;;;;;;;17.36;100.00;99677.53;5054667;28;20055;-50
2021/09/25 04:06:18;;;;;;;1.13;0.52;;;;;;;17.44;100.00;99672.84;5054618;28;20501;-49
2021/09/25 04:09:21;;;;;;;0.43;0.20;;;;;;;17.64;100.00;99674.47;5054080;28;20043;-49
2021/09/25 04:12:24;;;;;;;3.83;0.10;;;;;;;17.98;100.00;99670.72;5054663;28;20159;-49
2021/09/25 04:15:28;;;;;;;1.42;0.43;;;;;;;18.10;100.00;99666.47;5054580;28;20588;-49
2021/09/25 04:18:30;;;;;;;0.40;0.15;;;;;;;18.21;100.00;99664.81;5054567;28;20044;-49
2021/09/25 04:21:33;;;;;;;1.35;0.43;;;;;;;18.19;100.00;99662.53;5054434;28;20516;-49
2021/09/25 04:24:36;;;;;;;1.15;0.40;;;;;;;18.15;100.00;99659.22;5054309;28;20103;-49
2021/09/25 04:27:39;;;;;;;3.08;0.43;;;;;;;18.17;100.00;99670.72;5054056;28;20123;-49
2021/09/25 04:30:42;;;;;;;3.33;0.50;;;;;;;18.18;100.00;99669.44;5053970;28;20044;-49
2021/09/25 04:33:45;;;;;;;2.15;0.50;;;;;;;18.20;100.00;99664.03;5053853;28;20059;-49
2021/09/25 04:36:47;;;;;;;0.43;0.10;;;;;;;18.18;100.00;99673.03;5053926;28;20043;-49
2021/09/25 04:39:51;;;;;;;3.42;0.52;;;;;;;18.17;100.00;99665.84;5054298;28;20174;-49
2021/09/25 04:42:53;;;;;;;2.00;0.50;;;;;;;18.18;100.00;99658.94;5053932;28;20039;-49
2021/09/25 04:45:56;;;;;;;0.60;0.38;;;;;;;18.07;100.00;99650.63;5053887;28;20504;-49
2021/09/25 04:48:59;;;;;;;0.90;0.38;;;;;;;18.07;100.00;99653.44;5054034;28;20083;-49
2021/09/25 04:52:03;;;;;;;1.92;0.28;;;;;;;18.08;100.00;99652.13;5053701;28;20461;-49
2021/09/25 04:55:07;;;;;;;1.85;0.43;;;;;;;18.05;100.00;99653.22;5053819;28;20043;-49
2021/09/25 04:58:11;;;;;;;3.13;0.77;;;;;;;18.13;100.00;99654.13;5053412;28;20052;-49
2021/09/25 05:01:13;;;;;;;2.05;0.60;;;;;;;18.06;100.00;99654.72;5053706;28;20039;-49
2021/09/25 05:04:17;;;;;;;1.73;0.63;;;;;;;18.05;100.00;99658.84;5053127;28;20040;-49
2021/09/25 05:07:20;;;;;;;6.53;0.70;;;;;;;17.98;100.00;99661.50;5053801;28;20094;-49
2021/09/25 05:10:23;;;;;;;2.33;0.82;;;;;;;18.02;100.00;99659.91;5053581;28;20515;-49
2021/09/25 05:13:27;;;;;;;0.93;0.30;;;;;;;18.01;100.00;99669.66;5053504;28;20086;-49
2021/09/25 05:16:30;;;;;;;14.18;1.15;;;;;;;18.01;100.00;99669.66;5053442;28;20052;-49
2021/09/25 05:19:33;;;;;;;1.35;0.35;;;;;;;17.99;100.00;99666.63;5052636;28;20039;-50
2021/09/25 05:22:37;;;;;;;2.40;0.60;;;;;;;17.96;100.00;99673.31;5053166;28;20755;-49
2021/09/25 05:25:40;;;;;;;2.95;0.98;;;;;;;18.00;100.00;99665.31;5053142;28;20044;-49
2021/09/25 05:28:42;;;;;;;5.50;0.47;;;;;;;17.97;100.00;99666.41;5053186;28;20135;-49
2021/09/25 05:31:45;;;;;;;1.00;0.28;;;;;;;17.99;100.00;99666.63;5053031;28;20047;-49
2021/09/25 05:34:48;;;;;;;5.55;0.77;;;;;;;18.00;100.00;99673.00;5053195;28;20044;-50
2021/09/25 05:37:52;;;;;;;7.45;1.23;;;;;;;17.98;100.00;99672.78;5052692;28;20085;-49
2021/09/25 05:40:55;;;;;;;1.35;0.60;;;;;;;17.94;100.00;99673.09;5052642;28;20549;-50
2021/09/25 05:43:58;;;;;;;0.77;0.45;;;;;;;17.90;100.00;99672.63;5052742;28;20044;-49
2021/09/25 05:47:01;;;;;;;3.53;0.70;;;;;;;17.87;100.00;99670.09;5052758;28;20110;-49
2021/09/25 05:50:04;;;;;;;3.10;0.38;;;;;;;17.88;100.00;99666.75;5053014;28;20044;-49
2021/09/25 05:53:07;;;;;;;1.35;0.30;;;;;;;17.87;100.00;99656.75;5052545;28;20060;-50
2021/09/25 05:56:10;;;;;;;3.03;0.65;;;;;;;17.91;100.00;99657.22;5052757;28;20094;-50
2021/09/25 05:59:13;;;;;;;2.40;0.95;;;;;;;17.99;100.00;99661.00;5052678;28;20047;-49
2021/09/25 06:02:15;;;;;;;3.33;0.43;;;;;;;17.96;100.00;99656.41;5052634;28;20040;-49
2021/09/25 06:05:18;;;;;;;2.33;0.52;;;;;;;18.07;100.00;99650.63;5052310;28;20095;-50
2021/09/25 06:08:21;;;;;;;1.17;0.82;;;;;;;18.09;100.00;99655.72;5070741;28;20432;-50
2021/09/25 06:11:24;;;;;;;6.30;0.77;;;;;;;17.99;100.00;99660.22;5071819;28;20039;-49
2021/09/25 06:14:27;;;;;;;2.60;0.40;;;;;;;17.98;100.00;99658.69;5072539;28;20209;-50
2021/09/25 06:17:30;;;;;;;0.93;0.50;;;;;;;17.96;100.00;99656.41;5072951;28;20051;-50
2021/09/25 06:20:33;;;;;;;5.07;0.75;;;;;;;17.98;100.00;99656.63;5072977;28;20089;-50
2021/09/25 06:23:36;;;;;;;1.00;0.32;;;;;;;18.07;100.00;99661.13;5072736;28;20055;-50
2021/09/25 06:26:39;;;;;;;1.20;0.70;;;;;;;18.11;100.00;99653.91;5072668;28;20075;-50
2021/09/25 06:29:42;;;;;;;3.03;0.68;;;;;;;18.11;100.00;99661.59;5071536;28;20044;-50
2021/09/25 06:32:46;;;;;;;2.28;0.90;;;;;;;18.29;100.00;99660.06;5075940;28;20121;-50
2021/09/25 06:35:49;;;;;;;1.75;0.82;;;;;;;18.25;100.00;99660.38;5070378;28;20095;-49
2021/09/25 06:38:52;;;;;;;2.30;0.88;;;;;;;18.28;100.00;99655.75;5056229;28;20044;-50
2021/09/25 06:41:55;;;;;;;3.58;0.90;;;;;;;18.29;100.00;99660.06;5055363;28;20399;-50
2021/09/25 06:44:58;;;;;;;3.40;0.95;;;;;;;18.39;100.00;99667.63;5055259;28;20035;-47
2021/09/25 06:48:01;;;;;;;1.00;0.22;;;;;;;18.43;100.00;99658.88;5055011;28;20048;-47
2021/09/25 06:51:04;;;;;;;4.43;0.85;;;;;;;18.73;100.00;99659.47;5073251;28;20077;-47
2021/09/25 06:54:07;;;;;;;3.03;0.35;;;;;;;18.66;100.00;99660.09;5074474;28;20090;-47
2021/09/25 06:57:10;;;;;;;1.38;0.40;;;;;;;18.68;100.00;99657.47;5074543;28;20405;-47
2021/09/25 07:00:14;;;;;;;2.30;0.80;;;;;;;18.76;100.00;99658.38;5075535;28;20119;-47
2021/09/25 07:03:17;;;;;;;4.40;1.13;;;;;;;18.77;100.00;99660.69;5075201;28;20031;-47
2021/09/25 07:06:20;;;;;;;3.50;0.70;;;;;;;18.77;100.00;99659.91;5074944;28;20116;-47
2021/09/25 07:09:23;;;;;;;1.52;0.52;;;;;;;18.85;100.00;99660.81;5074648;28;20035;-47
2021/09/25 07:12:26;;;;;;;2.35;0.65;;;;;;;18.87;100.00;99658.19;5074753;28;20117;-48
2021/09/25 07:15:30;;;;;;;1.65;0.68;;;;;;;18.90;100.00;99659.97;5075034;28;20103;-48
2021/09/25 07:18:33;;;;;;;3.72;1.13;;;;;;;18.92;100.00;99654.53;5074988;28;20040;-48
2021/09/25 07:21:36;;;;;;;2.28;0.98;;;;;;;18.92;100.00;99660.19;5074845;28;20082;-48
2021/09/25 07:24:38;;;;;;;2.47;1.50;;;;;;;18.99;100.00;99665.19;5074631;28;20039;-49
2021/09/25 07:27:41;;;;;;;0.93;0.45;;;;;;;19.07;100.00;99663.25;5074558;28;20139;-49
2021/09/25 07:30:48;;;;;;;1.08;0.40;;;;;;;19.14;100.00;99662.63;5074492;28;20047;-49
2021/09/25 07:33:51;;;;;;;2.88;0.50;;;;;;;19.09;100.00;99663.47;5074478;28;20094;-50
2021/09/25 07:36:55;;;;;;;3.03;1.00;;;;;;;19.22;100.00;99666.34;5059702;28;20051;-48
2021/09/25 07:39:58;;;;;;;2.80;0.57;;;;;;;19.38;100.00;99667.38;5055036;28;20044;-49
2021/09/25 07:43:02;;;;;;;3.42;0.93;;;;;;;19.47;100.00;99673.34;5053934;28;20124;-49
2021/09/25 07:46:05;;;;;;;5.65;1.30;;;;;;;19.51;100.00;99679.44;5054104;28;20044;-49
2021/09/25 07:49:08;;;;;;;1.80;0.40;;;;;;;19.48;100.00;99669.25;5042743;28;20048;-51
2021/09/25 07:52:11;;;;;;;2.60;0.35;;;;;;;19.52;100.00;99678.16;5053552;28;20456;-52
2021/09/25 07:55:15;;;;;;;5.97;0.70;;;;;;;19.54;100.00;99669.88;5054893;28;20044;-52
2021/09/25 07:58:18;;;;;;;2.88;0.57;;;;;;;19.55;100.00;99677.06;5054527;28;20044;-52
2021/09/25 08:01:21;;;;;;;1.80;0.80;;;;;;;19.56;100.00;99678.56;5053297;28;20513;-52
2021/09/25 08:04:24;;;;;;;2.00;0.70;;;;;;;19.61;100.00;99674.91;5051547;28;20048;-52
2021/09/25 08:07:28;;;;;;;3.35;0.65;;;;;;;19.60;100.00;99673.38;5053549;28;20047;-52
2021/09/25 08:10:31;;;;;;;3.05;0.82;;;;;;;19.59;100.00;99680.34;5052995;28;20529;-51
2021/09/25 08:13:34;;;;;;;2.20;0.60;;;;;;;19.60;100.00;99681.84;5040974;28;20044;-52
2021/09/25 08:16:37;;;;;;;1.90;0.73;;;;;;;19.58;100.00;99690.09;5054102;28;20048;-52
2021/09/25 08:19:41;;;;;;;6.03;1.15;;;;;;;19.51;100.00;99690.72;5052442;28;20445;-52
2021/09/25 08:22:44;;;;;;;3.92;1.20;;;;;;;19.59;100.00;99693.69;5054014;28;20063;-52
2021/09/25 08:25:48;;;;;;;3.53;0.70;;;;;;;19.62;100.00;99698.28;5054258;28;20048;-52
2021/09/25 08:28:50;;;;;;;5.63;0.88;;;;;;;19.70;100.00;99704.03;5053675;28;20047;-51
2021/09/25 08:31:53;;;;;;;2.17;0.70;;;;;;;19.77;100.00;99700.56;5054050;28;20428;-51
2021/09/25 08:34:56;;;;;;;2.97;0.85;;;;;;;19.79;100.00;99700.78;5053496;28;20071;-52
2021/09/25 08:38:00;;;;;;;2.17;0.70;;;;;;;19.74;100.00;99698.81;5054095;28;20083;-52
2021/09/25 08:41:03;;;;;;;2.90;0.63;;;;;;;19.82;100.00;99696.84;5053668;28;20462;-52
2021/09/25 08:44:06;;;;;;;5.00;0.40;;;;;;;19.84;100.00;99699.91;5053734;28;20051;-51
2021/09/25 08:47:10;;;;;;;2.42;0.60;;;;;;;19.94;100.00;99704.59;5053679;28;20098;-51
2021/09/25 08:50:15;;;;;;;2.38;0.47;;;;;;;20.06;100.00;99705.88;5053646;28;20644;-52
2021/09/25 08:53:18;;;;;;;3.10;0.73;;;;;;;20.11;100.00;99699.34;5053450;28;20068;-52
2021/09/25 08:56:21;;;;;;;1.60;0.43;;;;;;;20.22;100.00;99701.22;5053993;28;20055;-51
2021/09/25 08:59:23;;;;;;;3.65;0.82;;;;;;;20.41;100.00;99693.34;5053514;28;20048;-52
2021/09/25 09:02:26;;;;;;;3.67;1.48;;;;;;;20.50;100.00;99694.94;5053418;28;20071;-52
2021/09/25 09:05:31;;;;;;;2.88;1.15;;;;;;;20.59;100.00;99691.66;5053355;28;20047;-51
2021/09/25 09:08:34;;;;;;;3.33;1.10;;;;;;;20.67;100.00;99681.19;5053093;28;20504;-52
2021/09/25 09:11:49;;;;;;;3.40;0.85;;;;;;;20.84;100.00;99687.97;5053305;28;20036;-52
2021/09/25 09:14:54;;;;;;;2.08;0.50;;;;;;;20.84;100.00;99690.03;5053224;28;20444;-52
2021/09/25 09:18:00;;;;;;;1.85;0.32;;;;;;;20.78;100.00;99693.00;5053254;28;20488;-52
2021/09/25 09:21:06;;;;;;;1.55;0.20;;;;;;;20.93;100.00;99692.41;5053420;28;20052;-52
2021/09/25 09:24:14;;;;;;;1.38;0.43;;;;;;;20.94;100.00;99691.84;5053219;28;20051;-52
2021/09/25 09:27:25;;;;;;;1.48;0.73;;;;;;;20.82;100.00;99690.59;5053379;28;20159;-51
2021/09/25 09:30:28;;;;;;;;;;;;;;;20.70;100.00;99683.69;5041910;28;20048;-52
2021/09/25 09:33:42;;;;;;;1.08;0.30;;;;;;;20.76;100.00;99684.31;5052891;28;20296;-51
2021/09/25 09:36:45;;;;;;;1.95;0.50;;;;;;;20.84;100.00;99690.03;5066489;28;20511;-52
2021/09/25 09:40:03;;;;;;;1.65;0.38;;;;;;;20.97;100.00;99693.56;5072749;28;20079;-52
2021/09/25 09:43:10;;;;;;;3.00;0.40;;;;;;;21.03;100.00;99685.72;5072729;28;20043;-52
2021/09/25 09:46:14;;;;;;;4.18;0.32;;;;;;;21.02;100.00;99695.53;5072725;28;20139;-52
2021/09/25 09:49:19;;;;;;;0.60;0.20;;;;;;;20.97;100.00;99695.63;5073022;28;20137;-52
2021/09/25 09:52:22;;;;;;;1.00;0.35;;;;;;;20.95;100.00;99695.44;5072469;28;20440;-52
2021/09/25 09:55:25;;;;;;;1.45;0.40;;;;;;;21.10;100.00;99696.38;5072550;28;20044;-52
2021/09/25 09:58:30;;;;;;;1.40;0.55;;;;;;;21.12;100.00;99693.75;5072487;28;20055;-52
2021/09/25 10:01:34;;;;;;;1.23;0.20;;;;;;;21.25;100.00;99689.31;5073040;28;20186;-52
2021/09/25 10:04:38;;;;;;;2.58;0.32;;;;;;;21.27;100.00;99692.38;5072323;28;20132;-52
2021/09/25 10:07:43;;;;;;;1.98;0.93;;;;;;;21.35;100.00;99687.53;5072472;28;20039;-52
2021/09/25 10:10:46;;;;;;;2.30;0.50;;;;;;;21.51;100.00;99691.97;5072812;28;20048;-52
2021/09/25 10:13:51;;;;;;;3.38;0.65;;;;;;;21.57;100.00;99692.63;5072925;28;20207;-52
2021/09/25 10:16:56;;;;;;;6.60;1.15;;;;;;;21.57;100.00;99692.63;5072505;28;20098;-52
2021/09/25 10:20:02;;;;;;;7.43;1.00;;;;;;;21.60;100.00;99691.50;5072387;28;20090;-52
2021/09/25 10:23:06;;;;;;;14.18;2.30;;;;;;;21.53;100.00;99689.34;5072627;28;20048;-52
2021/09/25 10:26:09;;;;;;;7.30;1.50;;;;;;;21.39;100.00;99693.59;5059789;28;20055;-53
2021/09/25 10:29:18;;;;;;;11.15;2.05;;;;;;;21.29;100.00;99689.75;5072753;28;20217;-52
2021/09/25 10:32:28;;;;;;;6.38;1.63;;;;;;;21.18;100.00;99684.34;5072621;28;20094;-52
2021/09/25 10:35:31;;;;;;;1.48;0.47;;;;;;;21.22;100.00;99690.44;5068143;28;20055;-52
2021/09/25 10:38:38;;;;;;;4.97;1.10;;;;;;;21.56;100.00;99674.84;5052464;28;20492;-52
2021/09/25 10:41:43;;;;;;;2.65;0.63;;;;;;;21.87;100.00;99676.56;5052602;28;20095;-52
2021/09/25 10:44:52;;;;;;;2.35;1.35;;;;;;;22.01;100.00;99665.88;5052304;28;20126;-52
2021/09/25 10:48:11;;;;;;;0.82;0.20;;;;;;;22.07;100.00;99660.78;5052357;28;20075;-52
2021/09/25 10:51:18;;;;;;;2.03;0.28;;;;;;;22.06;100.00;99658.53;5052237;28;20044;-53
2021/09/25 10:54:21;;;;;;;2.13;0.22;;;;;;;22.01;100.00;99654.53;5052196;28;20166;-52
2021/09/25 10:57:29;;;;;;;0.73;0.25;;;;;;;21.89;100.00;99667.53;5052249;28;20040;-51
2021/09/25 11:00:57;;;;;;;0.80;0.20;;;;;;;21.61;100.00;99673.91;5052034;28;20154;-52
2021/09/25 11:04:07;;;;;;;1.23;0.45;;;;;;;21.57;100.00;99664.28;5052006;28;20071;-51
2021/09/25 11:07:36;;;;;;;1.75;0.10;;;;;;;21.57;100.00;99678.44;5052133;28;20047;-51
2021/09/25 11:11:04;;;;;;;1.87;0.30;;;;;;;21.55;100.00;99676.16;5051944;28;20453;-51
2021/09/25 11:14:09;;;;;;;0.57;0.10;;;;;;;21.66;100.00;99672.25;5052201;28;20106;-51
2021/09/25 11:17:15;;;;;;;0.40;0.15;;;;;;;21.65;100.00;99654.50;5052014;28;20048;-51
2021/09/25 11:20:20;;;;;;;0.95;0.10;;;;;;;21.70;100.00;99661.34;5055802;28;20405;-51
2021/09/25 11:23:23;;;;;;;0.43;0.20;;;;;;;21.87;100.00;99651.06;5055302;28;20043;-51
2021/09/25 11:26:27;;;;;;;0.57;0.10;;;;;;;21.88;100.00;99649.75;5055403;28;20511;-51
2021/09/25 11:29:30;;;;;;;1.85;0.20;;;;;;;21.85;100.00;99650.84;5055112;28;20044;-51
2021/09/25 11:32:40;;;;;;;0.65;0.30;;;;;;;21.83;100.00;99647.06;5042310;28;20099;-52
2021/09/25 11:35:43;;;;;;;2.40;0.00;;;;;;;21.86;100.00;99648.78;5059853;28;20074;-51
2021/09/25 11:38:46;;;;;;;0.10;0.00;;;;;;;21.90;100.00;99649.19;5075281;28;20427;-51
2021/09/25 11:42:10;;;;;;;0.57;0.10;;;;;;;21.96;100.00;99637.69;5062769;28;20523;-51
2021/09/25 11:45:17;;;;;;;0.47;0.28;;;;;;;21.93;100.00;99633.91;5074794;28;20047;-52
2021/09/25 11:48:24;;;;;;;0.30;0.00;;;;;;;21.88;100.00;99632.75;5074649;28;20557;-52
2021/09/25 11:51:27;;;;;;;0.82;0.20;;;;;;;21.78;100.00;99633.78;5073908;28;20451;-52
2021/09/25 11:54:31;;;;;;;1.70;0.15;;;;;;;21.78;100.00;99630.94;5074762;28;20094;-52
2021/09/25 11:57:35;;;;;;;0.90;0.20;;;;;;;21.86;100.00;99628.94;5061894;28;20059;-52
2021/09/25 12:00:46;;;;;;;0.10;0.00;;;;;;;21.80;100.00;99631.16;5073836;28;20043;-52
2021/09/25 12:03:48;;;;;;;0.35;0.10;;;;;;;21.88;100.00;99631.97;5061370;28;20094;-52
2021/09/25 12:06:53;;;;;;;1.42;0.10;;;;;;;21.77;100.00;99627.34;5061723;28;20125;-53
2021/09/25 12:09:57;;;;;;;1.55;0.20;;;;;;;21.77;100.00;99618.09;5074296;28;20063;-53
2021/09/25 12:13:17;;;;;;;0.38;0.05;;;;;;;21.78;100.00;99616.78;5074435;28;20036;-52
2021/09/25 12:16:22;;;;;;;0.17;0.17;;;;;;;21.84;100.00;99603.22;5061813;28;20541;-52
2021/09/25 12:19:25;;;;;;;1.17;0.10;;;;;;;21.83;100.00;99596.78;5074232;28;20058;-48
2021/09/25 12:22:29;;;;;;;0.43;0.25;;;;;;;21.91;100.00;99590.41;5074276;28;20055;-48
2021/09/25 12:25:40;;;;;;;0.95;0.20;;;;;;;22.00;100.00;99582.13;5074657;28;20090;-49
2021/09/25 12:29:03;;;;;;;0.10;0.10;;;;;;;22.17;100.00;99582.38;5073218;28;20046;-48
2021/09/25 12:32:06;;;;;;;0.20;0.03;;;;;;;22.27;100.00;99577.66;5074360;28;20046;-47
2021/09/25 12:35:17;;;;;;;1.00;0.20;;;;;;;22.39;100.00;99586.59;5073757;28;20063;-49
2021/09/25 12:38:20;;;;;;;0.20;0.10;;;;;;;22.33;100.00;99574.63;5056352;28;20174;-52
2021/09/25 12:41:26;;;;;;;0.03;0.00;;;;;;;22.45;100.00;99573.75;5072897;28;20389;-52
2021/09/25 12:44:36;;;;;;;0.98;0.20;;;;;;;22.47;100.00;99567.50;5073363;28;20132;-52
2021/09/25 12:47:40;;;;;;;2.00;0.52;;;;;;;22.55;100.00;99573.94;5072461;28;20143;-52
2021/09/25 12:50:48;;;;;;;3.60;0.50;;;;;;;22.47;100.00;99567.50;5073783;28;20079;-52
2021/09/25 12:53:53;;;;;;;4.47;0.40;;;;;;;22.45;100.00;99565.22;5041989;28;20061;-52
2021/09/25 12:56:59;;;;;;;3.85;0.38;;;;;;;22.40;100.00;99562.56;5053700;28;20067;-52
2021/09/25 13:00:08;;;;;;;2.13;0.13;;;;;;;22.40;100.00;99563.31;5053438;28;20092;-52
2021/09/25 13:03:13;;;;;;;2.35;0.10;;;;;;;22.54;100.00;99553.31;5053447;28;20040;-52
2021/09/25 13:06:22;;;;;;;3.22;0.22;;;;;;;22.67;100.00;99551.66;5053175;28;20067;-52
2021/09/25 13:09:27;;;;;;;2.17;0.28;;;;;;;22.70;100.00;99544.84;5053543;28;20461;-52
2021/09/25 13:12:42;;;;;;;0.57;0.17;;;;;;;22.87;100.00;99542.19;5053717;28;20055;-52
2021/09/25 13:15:46;;;;;;;2.67;0.52;;;;;;;22.67;100.00;99537.47;5053170;28;20579;-52
2021/09/25 13:18:50;;;;;;;1.48;0.20;;;;;;;22.56;100.00;99536.50;5053458;28;20048;-52
2021/09/25 13:21:54;;;;;;;2.55;0.60;;;;;;;22.38;100.00;99539.66;5040801;28;20503;-52
2021/09/25 13:25:05;;;;;;;0.20;0.20;;;;;;;22.44;100.00;99534.56;5041174;28;20520;-52
2021/09/25 13:28:10;;;;;;;0.52;0.17;;;;;;;22.48;100.00;99544.22;5053175;28;20083;-52
2021/09/25 13:31:13;;;;;;;3.85;0.30;;;;;;;22.57;100.00;99534.38;5040698;28;20098;-52
2021/09/25 13:35:00;;;;;;;1.90;0.17;;;;;;;22.70;100.00;99542.00;5049708;28;20532;-51
2021/09/25 13:38:24;;;;;;;1.20;0.47;;;;;;;22.85;100.00;99550.53;5020972;28;20630;-47
2021/09/25 13:41:41;;;;;;;2.40;0.43;;;;;;;22.94;100.00;99547.88;5032769;28;20052;-47
2021/09/25 13:44:48;;;;;;;3.88;0.47;;;;;;;22.91;100.00;99545.41;5021121;28;20087;-49
2021/09/25 13:47:52;;;;;;;1.30;0.30;;;;;;;22.79;100.00;99544.25;5021166;28;20402;-49
2021/09/25 13:50:55;;;;;;;0.40;0.20;;;;;;;22.75;100.00;99536.13;5032150;28;20107;-49
2021/09/25 13:53:58;;;;;;;0.57;0.10;;;;;;;22.85;100.00;99527.81;5052445;28;20099;-49
2021/09/25 13:57:05;;;;;;;5.63;0.35;;;;;;;23.23;100.00;99512.22;5053257;28;20044;-47
2021/09/25 14:00:09;;;;;;;1.98;0.30;;;;;;;23.48;100.00;99508.75;5052828;28;20048;-47
2021/09/25 14:03:12;;;;;;;0.10;0.10;;;;;;;23.61;100.00;99506.44;5040240;28;20055;-50
2021/09/25 14:06:15;;;;;;;2.47;0.10;;;;;;;23.62;100.00;99502.28;5052452;28;20103;-49
2021/09/25 14:09:19;;;;;;;5.30;0.17;;;;;;;23.72;100.00;99505.25;5052567;28;20120;-49
2021/09/25 14:12:22;;;;;;;0.30;0.10;;;;;;;23.81;100.00;99508.25;5052182;28;20055;-50
2021/09/25 14:15:25;;;;;;;0.40;0.20;;;;;;;23.62;100.00;99502.28;5052301;28;20075;-49
2021/09/25 14:18:28;;;;;;;1.55;0.10;;;;;;;23.40;100.00;99499.50;5052506;28;20044;-49